createdAt,value
2017-10-10T00:02:13.866Z,12.20
2017-10-10T00:04:41.375Z,12.10
2017-10-10T00:07:08.930Z,12.10
2017-10-10T00:09:36.449Z,12.10
2017-10-10T00:12:03.956Z,12.10
2017-10-10T00:14:31.503Z,12.10
2017-10-10T00:16:59.050Z,12.10
2017-10-10T00:19:27.373Z,12.20
2017-10-10T00:21:54.886Z,12.10
2017-10-10T00:24:23.298Z,12.20
2017-10-10T00:26:50.806Z,12.20
2017-10-10T00:29:19.114Z,12.10
2017-10-10T00:31:46.626Z,12.10
2017-10-10T00:34:14.166Z,12.10
2017-10-10T00:36:41.665Z,12.10
2017-10-10T00:39:09.215Z,12.10
2017-10-10T00:41:36.729Z,12.10
2017-10-10T00:44:04.267Z,12.10
2017-10-10T00:46:31.815Z,12.10
2017-10-10T00:48:59.323Z,12.20
2017-10-10T00:51:26.881Z,12.20
2017-10-10T00:53:54.391Z,12.20
2017-10-10T00:56:21.941Z,12.20
2017-10-10T00:58:49.438Z,12.20
2017-10-10T01:01:17.078Z,12.30
2017-10-10T01:03:45.398Z,12.30
2017-10-10T01:06:12.969Z,12.20
2017-10-10T01:08:40.485Z,12.30
2017-10-10T01:11:08.046Z,12.30
2017-10-10T01:13:35.571Z,12.30
2017-10-10T01:16:03.090Z,12.30
2017-10-10T01:18:30.627Z,12.30
2017-10-10T01:20:58.142Z,12.20
2017-10-10T01:23:25.678Z,12.20
2017-10-10T01:25:53.198Z,12.20
2017-10-10T01:28:20.757Z,12.10
2017-10-10T01:30:48.274Z,12.10
2017-10-10T01:33:15.826Z,12.10
2017-10-10T01:35:43.341Z,12.00
2017-10-10T01:38:11.655Z,12.00
2017-10-10T01:40:39.171Z,12.00
2017-10-10T01:43:06.712Z,11.90
2017-10-10T01:45:34.220Z,11.90
2017-10-10T01:48:01.778Z,11.90
2017-10-10T01:50:29.282Z,11.90
2017-10-10T01:52:56.799Z,11.90
2017-10-10T01:55:24.350Z,11.90
2017-10-10T01:57:51.854Z,12.00
2017-10-10T02:00:19.401Z,12.00
2017-10-10T02:02:46.917Z,12.00
2017-10-10T02:05:14.455Z,12.10
2017-10-10T02:07:41.984Z,12.10
2017-10-10T02:10:09.535Z,12.10
2017-10-10T02:12:38.232Z,12.10
2017-10-10T02:15:05.784Z,12.10
2017-10-10T02:17:33.291Z,12.10
2017-10-10T02:20:00.798Z,12.10
2017-10-10T02:22:28.346Z,12.10
2017-10-10T02:24:55.856Z,12.10
2017-10-10T02:27:23.410Z,12.10
2017-10-10T02:29:50.938Z,12.10
2017-10-10T02:32:18.494Z,12.10
2017-10-10T02:34:46.010Z,12.10
2017-10-10T02:37:13.597Z,12.10
2017-10-10T02:39:41.877Z,12.20
2017-10-10T02:42:10.196Z,12.20
2017-10-10T02:44:37.712Z,12.20
2017-10-10T02:47:05.283Z,12.10
2017-10-10T02:49:32.804Z,12.10
2017-10-10T02:52:00.322Z,12.10
2017-10-10T02:54:27.866Z,12.10
2017-10-10T02:56:55.385Z,12.10
2017-10-10T02:59:22.930Z,12.10
2017-10-10T03:01:50.451Z,12.10
2017-10-10T03:04:18.023Z,12.10
2017-10-10T03:06:46.318Z,12.10
2017-10-10T03:09:14.621Z,12.10
2017-10-10T03:11:42.133Z,12.10
2017-10-10T03:14:10.495Z,12.10
2017-10-10T03:16:38.001Z,12.10
2017-10-10T03:19:05.573Z,12.10
2017-10-10T03:21:33.082Z,12.10
2017-10-10T03:24:00.636Z,12.10
2017-10-10T03:26:28.151Z,12.10
2017-10-10T03:28:56.589Z,12.10
2017-10-10T03:31:24.138Z,12.10
2017-10-10T03:33:51.642Z,12.10
2017-10-10T03:36:19.958Z,12.10
2017-10-10T03:38:47.489Z,12.10
2017-10-10T03:41:15.100Z,12.10
2017-10-10T03:43:42.617Z,12.10
2017-10-10T03:46:10.169Z,12.10
2017-10-10T03:48:37.679Z,12.10
2017-10-10T03:51:05.248Z,12.00
2017-10-10T03:53:32.807Z,12.00
2017-10-10T03:56:00.364Z,12.00
2017-10-10T03:58:27.869Z,12.00
2017-10-10T04:00:55.436Z,12.00
2017-10-10T04:03:22.967Z,12.00
2017-10-10T04:05:50.477Z,11.90
2017-10-10T04:08:18.030Z,11.90
2017-10-10T04:10:45.607Z,11.90
2017-10-10T04:13:13.150Z,11.90
2017-10-10T04:15:40.662Z,11.90
2017-10-10T04:18:08.206Z,11.90
2017-10-10T04:20:35.714Z,11.90
2017-10-10T04:23:03.254Z,11.90
2017-10-10T04:25:30.773Z,11.90
2017-10-10T04:27:58.337Z,11.90
2017-10-10T04:30:26.647Z,11.90
2017-10-10T04:32:54.935Z,11.90
2017-10-10T04:35:22.491Z,11.90
2017-10-10T04:37:50.015Z,11.90
2017-10-10T04:40:17.682Z,12.00
2017-10-10T04:42:45.201Z,12.00
2017-10-10T04:45:12.799Z,12.00
2017-10-10T04:47:40.314Z,12.00
2017-10-10T04:50:07.964Z,12.00
2017-10-10T04:52:36.369Z,12.00
2017-10-10T04:55:03.944Z,12.00
2017-10-10T04:57:32.229Z,12.10
2017-10-10T04:59:59.790Z,12.10
2017-10-10T05:02:27.318Z,12.10
2017-10-10T05:04:54.831Z,12.20
2017-10-10T05:07:22.386Z,12.20
2017-10-10T05:09:50.678Z,12.30
2017-10-10T05:12:18.982Z,12.40
2017-10-10T05:14:46.519Z,12.40
2017-10-10T05:17:14.446Z,12.50
2017-10-10T05:19:41.971Z,12.50
2017-10-10T05:22:09.490Z,12.50
2017-10-10T05:24:37.038Z,12.50
2017-10-10T05:27:04.558Z,12.50
2017-10-10T05:29:32.467Z,12.50
2017-10-10T05:32:00.002Z,12.50
2017-10-10T05:34:27.598Z,12.60
2017-10-10T05:36:55.114Z,12.60
2017-10-10T05:39:23.397Z,12.60
2017-10-10T05:41:51.716Z,12.70
2017-10-10T05:44:19.325Z,12.60
2017-10-10T05:46:46.888Z,12.70
2017-10-10T05:49:14.402Z,12.70
2017-10-10T05:51:42.721Z,12.80
2017-10-10T05:54:10.236Z,12.70
2017-10-10T05:56:37.837Z,12.80
2017-10-10T05:59:06.108Z,12.80
2017-10-10T06:01:33.647Z,12.80
2017-10-10T06:04:01.425Z,12.80
2017-10-10T06:06:28.953Z,12.80
2017-10-10T06:08:56.506Z,12.80
2017-10-10T06:11:24.018Z,12.90
2017-10-10T06:13:51.551Z,12.90
2017-10-10T06:16:19.060Z,12.90
2017-10-10T06:18:46.636Z,12.90
2017-10-10T06:21:14.161Z,12.90
2017-10-10T06:23:41.724Z,13.00
2017-10-10T06:26:09.253Z,13.00
2017-10-10T06:28:36.811Z,13.00
2017-10-10T06:31:04.350Z,13.00
2017-10-10T06:33:31.861Z,13.00
2017-10-10T06:35:59.399Z,13.00
2017-10-10T06:38:26.898Z,13.00
2017-10-10T06:40:54.451Z,13.00
2017-10-10T06:43:22.722Z,12.90
2017-10-10T06:45:50.950Z,12.90
2017-10-10T06:48:18.471Z,13.00
2017-10-10T06:50:46.009Z,13.00
2017-10-10T06:53:13.523Z,13.00
2017-10-10T06:55:41.074Z,13.00
2017-10-10T06:58:08.585Z,13.10
2017-10-10T07:00:36.102Z,13.10
2017-10-10T07:03:03.650Z,13.20
2017-10-10T07:05:31.165Z,13.30
2017-10-10T07:07:58.717Z,13.40
2017-10-10T07:10:26.229Z,13.50
2017-10-10T07:12:53.788Z,13.60
2017-10-10T07:15:21.290Z,13.70
2017-10-10T07:17:49.590Z,13.80
2017-10-10T07:20:17.855Z,13.80
2017-10-10T07:22:45.407Z,13.80
2017-10-10T07:25:12.910Z,13.80
2017-10-10T07:27:40.520Z,13.80
2017-10-10T07:30:08.056Z,13.70
2017-10-10T07:32:36.331Z,13.70
2017-10-10T07:35:03.890Z,13.70
2017-10-10T07:37:31.487Z,13.70
2017-10-10T07:39:59.091Z,13.70
2017-10-10T07:42:26.705Z,13.70
2017-10-10T07:44:55.804Z,13.70
2017-10-10T07:47:26.423Z,13.70
2017-10-10T07:49:56.350Z,13.70
2017-10-10T07:52:24.257Z,13.70
2017-10-10T07:54:51.941Z,13.70
2017-10-10T07:57:19.504Z,13.70
2017-10-10T07:59:47.088Z,13.80
2017-10-10T08:02:14.706Z,13.90
2017-10-10T08:04:42.281Z,14.00
2017-10-10T08:07:09.904Z,14.20
2017-10-10T08:09:37.503Z,14.30
2017-10-10T08:12:05.944Z,14.40
2017-10-10T08:14:33.502Z,14.40
2017-10-10T08:17:01.055Z,14.40
2017-10-10T08:19:29.407Z,14.70
2017-10-10T08:21:56.955Z,14.70
2017-10-10T08:24:25.710Z,14.70
2017-10-10T08:26:54.269Z,14.70
2017-10-10T08:29:21.789Z,14.70
2017-10-10T08:31:50.067Z,14.80
2017-10-10T08:34:17.613Z,14.80
2017-10-10T08:36:45.135Z,14.90
2017-10-10T08:39:13.449Z,14.90
2017-10-10T08:41:40.971Z,14.80
2017-10-10T08:44:08.521Z,15.00
2017-10-10T08:46:36.031Z,15.00
2017-10-10T08:49:04.351Z,15.20
2017-10-10T08:51:31.859Z,15.20
2017-10-10T08:53:59.405Z,15.10
2017-10-10T08:56:26.952Z,15.20
2017-10-10T08:58:54.506Z,15.20
2017-10-10T09:01:22.021Z,15.20
2017-10-10T09:03:49.533Z,15.20
2017-10-10T09:06:17.156Z,15.30
2017-10-10T09:08:44.668Z,15.30
2017-10-10T09:11:12.255Z,15.40
2017-10-10T09:13:39.761Z,15.40
2017-10-10T09:16:07.315Z,15.50
2017-10-10T09:18:35.794Z,15.40
2017-10-10T09:21:03.363Z,15.50
2017-10-10T09:23:30.869Z,15.70
2017-10-10T09:25:58.431Z,16.00
2017-10-10T09:28:26.714Z,16.50
2017-10-10T09:30:54.986Z,16.70
2017-10-10T09:33:22.531Z,16.60
2017-10-10T09:35:50.039Z,16.60
2017-10-10T09:38:17.586Z,16.70
2017-10-10T09:40:45.112Z,16.80
2017-10-10T09:43:12.651Z,16.80
2017-10-10T09:45:40.185Z,16.90
2017-10-10T09:48:07.734Z,16.90
2017-10-10T09:50:35.254Z,17.00
2017-10-10T09:53:02.902Z,17.00
2017-10-10T09:55:31.333Z,16.90
2017-10-10T09:57:58.851Z,16.90
2017-10-10T10:00:26.398Z,16.90
2017-10-10T10:02:54.706Z,16.90
2017-10-10T10:05:22.273Z,16.90
2017-10-10T10:07:49.780Z,16.70
2017-10-10T10:10:17.322Z,16.50
2017-10-10T10:12:44.836Z,16.30
2017-10-10T10:15:12.406Z,16.20
2017-10-10T10:17:40.705Z,15.80
2017-10-10T10:20:08.250Z,15.80
2017-10-10T10:22:35.772Z,15.70
2017-10-10T10:25:04.147Z,15.50
2017-10-10T10:27:31.650Z,15.50
2017-10-10T10:29:59.155Z,15.40
2017-10-10T10:32:26.710Z,15.40
2017-10-10T10:34:54.254Z,15.50
2017-10-10T10:37:21.869Z,15.60
2017-10-10T10:39:49.373Z,15.80
2017-10-10T10:42:16.924Z,15.90
2017-10-10T10:44:44.433Z,16.20
2017-10-10T10:47:11.986Z,16.20
2017-10-10T10:49:39.505Z,16.20
2017-10-10T10:52:07.043Z,16.20
2017-10-10T10:54:34.588Z,16.10
2017-10-10T10:57:02.091Z,16.00
2017-10-10T10:59:29.676Z,16.10
2017-10-10T11:01:57.954Z,16.40
2017-10-10T11:04:26.262Z,16.50
2017-10-10T11:06:53.821Z,16.40
2017-10-10T11:09:21.362Z,16.60
2017-10-10T11:11:48.892Z,16.70
2017-10-10T11:14:16.579Z,16.80
2017-10-10T11:16:44.081Z,17.10
2017-10-10T11:19:11.606Z,17.20
2017-10-10T11:21:39.166Z,17.50
2017-10-10T11:24:06.683Z,17.80
2017-10-10T11:26:34.224Z,18.20
2017-10-10T11:29:01.735Z,18.60
2017-10-10T11:31:29.290Z,19.10
2017-10-10T11:33:56.800Z,19.40
2017-10-10T11:36:24.347Z,19.60
2017-10-10T11:38:52.414Z,19.90
2017-10-10T11:41:19.970Z,19.80
2017-10-10T11:43:47.538Z,19.50
2017-10-10T11:46:15.056Z,19.10
2017-10-10T11:48:42.605Z,18.60
2017-10-10T11:51:10.103Z,18.40
2017-10-10T11:53:37.666Z,18.30
2017-10-10T11:56:05.195Z,18.30
2017-10-10T11:58:33.498Z,17.90
2017-10-10T12:01:01.851Z,17.90
2017-10-10T12:03:30.173Z,17.80
2017-10-10T12:05:57.697Z,17.80
2017-10-10T12:08:25.231Z,17.90
2017-10-10T12:10:52.751Z,17.90
2017-10-10T12:13:20.436Z,17.90
2017-10-10T12:15:47.946Z,18.00
2017-10-10T12:18:15.484Z,18.30
2017-10-10T12:20:43.751Z,18.50
2017-10-10T12:23:11.295Z,18.50
2017-10-10T12:25:38.860Z,18.50
2017-10-10T12:28:06.381Z,18.50
2017-10-10T12:30:34.702Z,17.90
2017-10-10T12:33:02.212Z,17.90
2017-10-10T12:35:30.256Z,18.00
2017-10-10T12:37:58.514Z,17.80
2017-10-10T12:40:26.829Z,17.70
2017-10-10T12:42:55.106Z,17.60
2017-10-10T12:45:22.658Z,17.60
2017-10-10T12:47:50.198Z,17.60
2017-10-10T12:50:17.790Z,17.60
2017-10-10T12:52:45.310Z,17.80
2017-10-10T12:55:12.855Z,18.00
2017-10-10T12:57:40.423Z,18.10
2017-10-10T13:00:07.928Z,18.10
2017-10-10T13:02:35.493Z,18.10
2017-10-10T13:05:03.007Z,18.10
2017-10-10T13:07:30.552Z,18.10
2017-10-10T13:09:58.089Z,18.20
2017-10-10T13:12:26.417Z,18.40
2017-10-10T13:14:53.917Z,18.40
2017-10-10T13:17:21.467Z,18.50
2017-10-10T13:19:48.981Z,18.50
2017-10-10T13:22:16.488Z,18.50
2017-10-10T13:24:44.029Z,18.60
2017-10-10T13:27:11.594Z,18.60
2017-10-10T13:29:39.157Z,18.70
2017-10-10T13:32:06.675Z,18.80
2017-10-10T13:34:34.219Z,18.90
2017-10-10T13:37:01.746Z,19.00
2017-10-10T13:39:29.299Z,18.80
2017-10-10T13:41:56.816Z,18.70
2017-10-10T13:44:24.373Z,18.60
2017-10-10T13:46:51.903Z,18.40
2017-10-10T13:49:19.410Z,18.20
2017-10-10T13:51:47.035Z,18.10
2017-10-10T13:54:15.334Z,17.60
2017-10-10T13:56:42.898Z,17.60
2017-10-10T13:59:10.428Z,17.50
2017-10-10T14:01:37.999Z,17.20
2017-10-10T14:04:05.526Z,17.00
2017-10-10T14:06:33.832Z,16.80
2017-10-10T14:09:01.373Z,16.80
2017-10-10T14:11:29.688Z,16.80
2017-10-10T14:13:57.206Z,16.70
2017-10-10T14:16:24.839Z,16.80
2017-10-10T14:18:52.379Z,16.90
2017-10-10T14:21:19.904Z,17.00
2017-10-10T14:23:47.472Z,17.00
2017-10-10T14:26:14.982Z,17.00
2017-10-10T14:28:43.445Z,16.90
2017-10-10T14:31:10.955Z,16.80
2017-10-10T14:33:38.511Z,16.70
2017-10-10T14:38:33.553Z,16.50
2017-10-10T14:41:01.077Z,16.50
2017-10-10T14:43:28.585Z,16.40
2017-10-10T14:45:56.226Z,16.40
2017-10-10T14:48:23.736Z,16.30
2017-10-10T14:50:51.299Z,16.20
2017-10-10T14:53:18.802Z,16.20
2017-10-10T14:55:46.348Z,16.10
2017-10-10T14:58:13.866Z,16.10
2017-10-10T15:00:42.297Z,16.10
2017-10-10T15:03:09.831Z,16.10
2017-10-10T15:05:37.342Z,16.10
2017-10-10T15:08:04.893Z,16.00
2017-10-10T15:10:32.414Z,16.00
2017-10-10T15:12:59.963Z,16.10
2017-10-10T15:15:27.483Z,16.10
2017-10-10T15:17:55.782Z,16.10
2017-10-10T15:20:23.327Z,16.10
2017-10-10T15:22:50.884Z,16.10
2017-10-10T15:25:18.387Z,16.10
2017-10-10T15:27:46.690Z,16.10
2017-10-10T15:30:14.218Z,16.10
2017-10-10T15:32:41.833Z,16.10
2017-10-10T15:35:09.422Z,16.00
2017-10-10T15:37:37.012Z,16.00
2017-10-10T15:40:05.710Z,15.90
2017-10-10T15:42:33.237Z,15.90
2017-10-10T15:45:01.547Z,15.80
2017-10-10T15:47:29.067Z,15.80
2017-10-10T15:49:56.610Z,15.80
2017-10-10T15:52:24.122Z,15.80
2017-10-10T15:54:51.676Z,15.70
2017-10-10T15:57:19.199Z,15.70
2017-10-10T15:59:46.762Z,15.70
2017-10-10T16:02:14.289Z,15.70
2017-10-10T16:04:41.826Z,15.70
2017-10-10T16:07:09.401Z,15.70
2017-10-10T16:09:36.968Z,15.60
2017-10-10T16:12:04.495Z,15.50
2017-10-10T16:14:32.013Z,15.50
2017-10-10T16:16:59.551Z,15.40
2017-10-10T16:19:27.066Z,15.30
2017-10-10T16:21:54.606Z,15.30
2017-10-10T16:24:22.899Z,15.20
2017-10-10T16:26:50.458Z,15.20
2017-10-10T16:29:17.969Z,15.20
2017-10-10T16:31:45.511Z,15.20
2017-10-10T16:34:13.792Z,15.20
2017-10-10T16:36:42.110Z,15.10
2017-10-10T16:39:09.615Z,15.10
2017-10-10T16:41:37.155Z,15.10
2017-10-10T16:44:04.662Z,15.00
2017-10-10T16:46:32.249Z,15.00
2017-10-10T16:48:59.770Z,14.90
2017-10-10T16:51:27.291Z,14.90
2017-10-10T16:53:54.874Z,14.90
2017-10-10T16:56:22.397Z,14.90
2017-10-10T16:58:49.951Z,14.90
2017-10-10T17:01:17.461Z,14.80
2017-10-10T17:03:45.028Z,14.80
2017-10-10T17:06:12.553Z,14.70
2017-10-10T17:08:40.179Z,14.70
2017-10-10T17:11:07.693Z,14.70
2017-10-10T17:13:35.238Z,14.70
2017-10-10T17:16:03.744Z,14.70
2017-10-10T17:18:31.501Z,14.80
2017-10-10T17:20:59.058Z,14.70
2017-10-10T17:23:26.598Z,14.70
2017-10-10T17:25:54.163Z,14.70
2017-10-10T17:28:21.673Z,14.70
2017-10-10T17:30:49.211Z,14.70
2017-10-10T17:33:16.748Z,14.70
2017-10-10T17:35:44.327Z,14.80
2017-10-10T17:38:11.855Z,14.80
2017-10-10T17:40:39.419Z,14.90
2017-10-10T17:43:06.970Z,14.90
2017-10-10T17:45:34.554Z,15.00
2017-10-10T17:48:02.113Z,15.00
2017-10-10T17:50:29.637Z,15.00
2017-10-10T17:52:57.191Z,14.90
2017-10-10T17:55:24.729Z,14.90
2017-10-10T17:57:53.042Z,14.80
2017-10-10T18:00:20.550Z,14.80
2017-10-10T18:02:48.135Z,14.70
2017-10-10T18:05:15.694Z,14.70
2017-10-10T18:07:43.330Z,14.70
2017-10-10T18:10:11.802Z,14.60
2017-10-10T18:12:39.331Z,14.60
2017-10-10T18:15:06.878Z,14.60
2017-10-10T18:17:34.710Z,14.70
2017-10-10T18:20:02.257Z,14.70
2017-10-10T18:22:29.760Z,14.80
2017-10-10T18:24:57.313Z,14.80
2017-10-10T18:27:24.826Z,14.80
2017-10-10T18:29:52.411Z,14.80
2017-10-10T18:32:19.934Z,14.80
2017-10-10T18:34:47.461Z,14.80
2017-10-10T18:37:15.024Z,14.80
2017-10-10T18:39:42.544Z,14.80
2017-10-10T18:42:10.090Z,14.80
2017-10-10T18:44:37.634Z,14.80
2017-10-10T18:47:05.189Z,14.80
2017-10-10T18:49:32.723Z,14.80
2017-10-10T18:52:00.278Z,14.80
2017-10-10T18:54:27.813Z,14.80
2017-10-10T18:56:55.387Z,14.80
2017-10-10T18:59:22.959Z,14.80
2017-10-10T19:01:51.247Z,14.80
2017-10-10T19:04:18.811Z,14.80
2017-10-10T19:06:46.376Z,14.80
2017-10-10T19:09:14.725Z,14.70
2017-10-10T19:11:43.199Z,14.70
2017-10-10T19:14:10.726Z,14.70
2017-10-10T19:16:38.309Z,14.70
2017-10-10T19:19:06.653Z,14.70
2017-10-10T19:21:34.244Z,14.60
2017-10-10T19:24:01.771Z,14.60
2017-10-10T19:26:29.367Z,14.60
2017-10-10T19:28:56.884Z,14.60
2017-10-10T19:31:24.458Z,14.60
2017-10-10T19:33:52.031Z,14.60
2017-10-10T19:36:19.563Z,14.60
2017-10-10T19:38:47.131Z,14.60
2017-10-10T19:41:14.651Z,14.60
2017-10-10T19:43:42.252Z,14.50
2017-10-10T19:46:09.780Z,14.50
2017-10-10T19:48:37.343Z,14.50
2017-10-10T19:51:04.937Z,14.50
2017-10-10T19:53:32.531Z,14.50
2017-10-10T19:56:00.059Z,14.50
2017-10-10T19:58:27.600Z,14.50
2017-10-10T20:00:56.150Z,14.50
2017-10-10T20:03:24.244Z,14.50
2017-10-10T20:05:52.571Z,14.40
2017-10-10T20:08:20.118Z,14.40
2017-10-10T20:10:47.722Z,14.50
2017-10-10T20:13:15.276Z,14.50
2017-10-10T20:15:42.929Z,14.50
2017-10-10T20:18:11.431Z,14.40
2017-10-10T20:20:39.772Z,14.40
2017-10-10T20:23:07.310Z,14.40
2017-10-10T20:25:34.810Z,14.40
2017-10-10T20:28:02.605Z,14.50
2017-10-10T20:30:31.152Z,14.50
2017-10-10T20:32:58.833Z,14.50
2017-10-10T20:35:26.391Z,14.50
2017-10-10T20:37:53.934Z,14.50
2017-10-10T20:40:21.469Z,14.50
2017-10-10T20:42:49.122Z,14.50
2017-10-10T20:45:16.725Z,14.50
2017-10-10T20:47:44.294Z,14.50
2017-10-10T20:50:11.919Z,14.50
2017-10-10T20:52:39.887Z,14.50
2017-10-10T20:55:07.498Z,14.40
2017-10-10T20:57:35.001Z,14.40
2017-10-10T21:00:02.644Z,14.30
2017-10-10T21:02:30.150Z,14.30
2017-10-10T21:05:00.724Z,14.30
2017-10-10T21:07:28.296Z,14.30
2017-10-10T21:09:55.870Z,14.30
2017-10-10T21:12:23.390Z,14.30
2017-10-10T21:14:51.158Z,14.30
2017-10-10T21:17:18.675Z,14.20
2017-10-10T21:19:46.230Z,14.20
2017-10-10T21:22:14.730Z,14.20
2017-10-10T21:24:42.235Z,14.20
2017-10-10T21:27:10.551Z,14.20
2017-10-10T21:29:38.100Z,14.20
2017-10-10T21:32:05.663Z,14.20
2017-10-10T21:34:33.190Z,14.20
2017-10-10T21:37:00.748Z,14.10
2017-10-10T21:39:28.259Z,14.20
2017-10-10T21:41:55.803Z,14.20
2017-10-10T21:44:23.299Z,14.10
2017-10-10T21:46:50.826Z,14.10
2017-10-10T21:49:18.325Z,14.10
2017-10-10T21:51:45.886Z,14.00
2017-10-10T21:54:13.399Z,14.00
2017-10-10T21:56:40.931Z,14.00
2017-10-10T21:59:09.270Z,14.00
2017-10-10T22:01:36.770Z,14.00
2017-10-10T22:04:04.378Z,14.00
2017-10-10T22:06:31.882Z,13.90
2017-10-10T22:08:59.488Z,13.90
2017-10-10T22:11:27.034Z,13.80
2017-10-10T22:13:54.609Z,13.80
2017-10-10T22:16:22.882Z,13.60
2017-10-10T22:18:50.427Z,13.50
2017-10-10T22:21:17.930Z,13.40
2017-10-10T22:23:45.902Z,13.30
2017-10-10T22:26:13.435Z,13.10
2017-10-10T22:28:41.035Z,12.90
2017-10-10T22:31:08.586Z,12.70
2017-10-10T22:33:36.118Z,12.60
2017-10-10T22:36:03.662Z,12.50
2017-10-10T22:38:31.170Z,12.40
2017-10-10T22:40:59.465Z,12.30
2017-10-10T22:43:26.990Z,12.20
2017-10-10T22:45:54.534Z,12.20
2017-10-10T22:48:22.031Z,12.20
2017-10-10T22:50:49.539Z,12.20
2017-10-10T22:53:17.845Z,12.20
2017-10-10T22:55:45.342Z,12.20
2017-10-10T22:58:13.646Z,12.20
2017-10-10T23:00:41.161Z,12.10
2017-10-10T23:03:09.462Z,12.00
2017-10-10T23:05:36.958Z,12.00
2017-10-10T23:08:04.486Z,11.90
2017-10-10T23:10:32.010Z,11.90
2017-10-10T23:12:59.547Z,11.80
2017-10-10T23:15:27.809Z,11.70
2017-10-10T23:17:55.361Z,11.70
2017-10-10T23:20:22.879Z,11.60
2017-10-10T23:22:50.387Z,11.70
2017-10-10T23:25:17.926Z,11.70
2017-10-10T23:27:45.439Z,11.70
2017-10-10T23:30:12.995Z,11.70
2017-10-10T23:32:40.489Z,11.70
2017-10-10T23:35:08.027Z,11.80
2017-10-10T23:37:35.537Z,11.80
2017-10-10T23:40:03.063Z,11.80
2017-10-10T23:42:30.571Z,11.80
2017-10-10T23:44:58.107Z,11.80
2017-10-10T23:47:25.606Z,11.80
2017-10-10T23:49:53.172Z,11.80
2017-10-10T23:52:20.681Z,11.90
2017-10-10T23:54:48.186Z,11.90
2017-10-10T23:57:15.726Z,11.90
2017-10-10T23:59:43.248Z,11.90
